Time,TemperatureF,DewpointF,PressureIn,WindDirection,WindDirectionDegrees,WindSpeedMPH,WindSpeedGustMPH,Humidity,HourlyPrecipIn,Conditions,Clouds,dailyrainin,SoftwareType,DateUTC
2013-03-31 00:00:00,40.6,29.4,30.09,South,186,1.0,1.0,64,0.00,,,0.00,Wunderground v.1.15,2013-03-31 04:00:00,
2013-03-31 00:06:00,40.2,29.0,30.09,South,186,0.0,1.0,64,0.00,,,0.00,Wunderground v.1.15,2013-03-31 04:06:00,
2013-03-31 00:17:00,39.4,29.0,30.09,South,186,0.0,-999.0,66,-99.99,,,0.00,weatherlink.com 1.10,2013-03-31 04:17:00,
2013-03-31 00:20:00,39.5,29.1,30.09,South,186,0.0,1.0,66,0.00,,,0.00,Wunderground v.1.15,2013-03-31 04:20:00,
2013-03-31 00:26:00,39.6,28.8,30.09,South,186,1.0,2.0,65,0.00,,,0.00,Wunderground v.1.15,2013-03-31 04:26:00,
2013-03-31 00:32:00,39.5,29.0,30.09,South,186,0.0,-999.0,66,-99.99,,,0.00,weatherlink.com 1.10,2013-03-31 04:32:00,
2013-03-31 00:40:00,38.8,28.8,30.09,South,186,0.0,1.0,67,0.00,,,0.00,Wunderground v.1.15,2013-03-31 04:40:00,
2013-03-31 00:47:00,38.0,28.0,30.09,South,186,0.0,-999.0,68,-99.99,,,0.00,weatherlink.com 1.10,2013-03-31 04:47:00,
2013-03-31 00:56:00,37.2,28.3,30.09,South,186,0.0,0.0,70,0.00,,,0.00,Wunderground v.1.15,2013-03-31 04:56:00,
2013-03-31 01:02:00,36.6,28.0,30.09,South,186,0.0,-999.0,71,-99.99,,,0.00,weatherlink.com 1.10,2013-03-31 05:02:00,
2013-03-31 01:10:00,36.3,28.5,30.09,South,186,0.0,1.0,73,0.00,,,0.00,Wunderground v.1.15,2013-03-31 05:10:00,
2013-03-31 01:15:00,37.0,28.8,30.09,South,186,0.0,1.0,72,0.00,,,0.00,Wunderground v.1.15,2013-03-31 05:15:00,
2013-03-31 01:21:00,37.6,29.0,30.09,South,186,1.0,1.0,71,0.00,,,0.00,Wunderground v.1.15,2013-03-31 05:21:00,
2013-03-31 01:30:00,38.9,29.2,30.09,South,186,1.0,2.0,68,0.00,,,0.00,Wunderground v.1.15,2013-03-31 05:30:00,
2013-03-31 01:36:00,39.5,29.4,30.09,South,186,2.0,2.0,67,0.00,,,0.00,Wunderground v.1.15,2013-03-31 05:36:00,
2013-03-31 01:45:00,38.3,29.0,30.09,South,186,0.0,2.0,69,0.00,,,0.00,Wunderground v.1.15,2013-03-31 05:45:00,
2013-03-31 01:51:00,37.5,28.9,30.08,South,186,0.0,0.0,71,0.00,,,0.00,Wunderground v.1.15,2013-03-31 05:51:00,
2013-03-31 02:00:00,36.9,29.7,30.09,South,186,0.0,0.0,75,0.00,,,0.00,Wunderground v.1.15,2013-03-31 06:00:00,
2013-03-31 02:06:00,36.6,29.4,30.08,South,186,0.0,0.0,75,0.00,,,0.00,Wunderground v.1.15,2013-03-31 06:06:00,
2013-03-31 02:16:00,36.1,29.6,30.08,South,186,0.0,0.0,77,0.00,,,0.00,Wunderground v.1.15,2013-03-31 06:16:00,
2013-03-31 02:21:00,35.8,29.6,30.08,South,186,0.0,0.0,78,0.00,,,0.00,Wunderground v.1.15,2013-03-31 06:21:00,
2013-03-31 02:30:00,35.1,29.2,30.08,South,186,0.0,0.0,79,0.00,,,0.00,Wunderground v.1.15,2013-03-31 06:30:00,
2013-03-31 02:36:00,34.9,29.4,30.08,South,186,0.0,0.0,80,0.00,,,0.00,Wunderground v.1.15,2013-03-31 06:36:00,
2013-03-31 02:45:00,34.6,29.4,30.08,South,186,0.0,0.0,81,0.00,,,0.00,Wunderground v.1.15,2013-03-31 06:45:00,
2013-03-31 03:01:00,34.2,28.4,30.07,South,186,0.0,0.0,79,0.00,,,0.00,Wunderground v.1.15,2013-03-31 07:01:00,
2013-03-31 03:10:00,34.1,28.3,30.07,South,186,0.0,0.0,79,0.00,,,0.00,Wunderground v.1.15,2013-03-31 07:10:00,
2013-03-31 03:16:00,34.1,28.0,30.07,South,186,0.0,0.0,78,0.00,,,0.00,Wunderground v.1.15,2013-03-31 07:16:00,
2013-03-31 03:30:00,33.9,28.4,30.07,South,186,0.0,0.0,80,0.00,,,0.00,Wunderground v.1.15,2013-03-31 07:30:00,
2013-03-31 03:36:00,33.7,28.2,30.07,South,186,0.0,0.0,80,0.00,,,0.00,Wunderground v.1.15,2013-03-31 07:36:00,
2013-03-31 03:47:00,33.3,28.0,30.06,South,186,0.0,-999.0,81,-99.99,,,0.00,weatherlink.com 1.10,2013-03-31 07:47:00,
2013-03-31 03:56:00,33.0,28.4,30.06,South,186,0.0,0.0,83,0.00,,,0.00,Wunderground v.1.15,2013-03-31 07:56:00,
2013-03-31 04:02:00,32.7,28.0,30.06,South,186,0.0,-999.0,83,-99.99,,,0.00,weatherlink.com 1.10,2013-03-31 08:02:00,
2013-03-31 04:10:00,32.9,28.9,30.05,South,186,0.0,0.0,85,0.00,,,0.00,Wunderground v.1.15,2013-03-31 08:10:00,
2013-03-31 04:16:00,33.2,28.9,30.05,South,186,0.0,0.0,84,0.00,,,0.00,Wunderground v.1.15,2013-03-31 08:16:00,
2013-03-31 04:25:00,33.9,29.3,30.05,South,186,0.0,0.0,83,0.00,,,0.00,Wunderground v.1.15,2013-03-31 08:25:00,
2013-03-31 04:31:00,33.9,29.0,30.05,South,186,0.0,0.0,82,0.00,,,0.00,Wunderground v.1.15,2013-03-31 08:31:00,
2013-03-31 04:36:00,33.7,28.5,30.05,South,186,0.0,0.0,81,0.00,,,0.00,Wunderground v.1.15,2013-03-31 08:36:00,
2013-03-31 04:46:00,32.8,27.9,30.05,South,186,0.0,0.0,82,0.00,,,0.00,Wunderground v.1.15,2013-03-31 08:46:00,
2013-03-31 05:00:00,32.2,27.6,30.05,South,186,0.0,0.0,83,0.00,,,0.00,Wunderground v.1.15,2013-03-31 09:00:00,
2013-03-31 05:06:00,32.0,27.7,30.05,South,186,0.0,0.0,84,0.00,,,0.00,Wunderground v.1.15,2013-03-31 09:06:00,
2013-03-31 05:15:00,31.8,27.5,30.04,South,186,0.0,0.0,84,0.00,,,0.00,Wunderground v.1.15,2013-03-31 09:15:00,
2013-03-31 05:21:00,31.7,28.0,30.04,South,186,0.0,0.0,86,0.00,,,0.00,Wunderground v.1.15,2013-03-31 09:21:00,
2013-03-31 05:32:00,34.5,31.0,30.03,South,186,2.0,-999.0,88,-99.99,,,0.00,weatherlink.com 1.10,2013-03-31 09:32:00,
2013-03-31 05:40:00,36.5,31.5,30.03,South,186,1.0,1.0,82,0.00,,,0.00,Wunderground v.1.15,2013-03-31 09:40:00,
2013-03-31 05:45:00,36.8,31.5,30.03,South,186,0.0,1.0,81,0.00,,,0.00,Wunderground v.1.15,2013-03-31 09:45:00,
2013-03-31 05:51:00,36.7,30.5,30.02,South,186,0.0,0.0,78,0.00,,,0.00,Wunderground v.1.15,2013-03-31 09:51:00,
2013-03-31 06:00:00,36.1,30.5,30.03,South,186,0.0,0.0,80,0.00,,,0.00,Wunderground v.1.15,2013-03-31 10:00:00,
2013-03-31 06:06:00,35.7,30.4,30.02,South,186,0.0,0.0,81,0.00,,,0.00,Wunderground v.1.15,2013-03-31 10:06:00,
2013-03-31 06:17:00,35.6,31.0,30.02,South,186,2.0,-999.0,83,-99.99,,,0.00,weatherlink.com 1.10,2013-03-31 10:17:00,
2013-03-31 06:25:00,36.7,31.1,30.02,South,186,1.0,1.0,80,0.00,,,0.00,Wunderground v.1.15,2013-03-31 10:25:00,
2013-03-31 06:31:00,36.9,31.3,30.01,South,186,1.0,3.0,80,0.00,,,0.00,Wunderground v.1.15,2013-03-31 10:31:00,
2013-03-31 06:36:00,37.0,31.1,30.02,South,186,1.0,1.0,79,0.00,,,0.00,Wunderground v.1.15,2013-03-31 10:36:00,
2013-03-31 06:47:00,36.7,31.0,30.02,South,186,0.0,-999.0,79,-99.99,,,0.00,weatherlink.com 1.10,2013-03-31 10:47:00,
2013-03-31 07:02:00,36.2,31.0,30.02,South,186,0.0,-999.0,81,-99.99,,,0.00,weatherlink.com 1.10,2013-03-31 11:02:00,
2013-03-31 07:17:00,36.1,31.0,30.02,South,186,0.0,-999.0,81,-99.99,,,0.00,weatherlink.com 1.10,2013-03-31 11:17:00,
2013-03-31 07:26:00,36.2,30.9,30.03,South,186,0.0,0.0,81,0.00,,,0.00,Wunderground v.1.15,2013-03-31 11:26:00,
2013-03-31 07:32:00,36.5,31.0,30.02,South,186,2.0,-999.0,81,-99.99,,,0.00,weatherlink.com 1.10,2013-03-31 11:32:00,
2013-03-31 07:45:00,37.4,31.8,30.01,South,186,1.0,1.0,80,0.00,,,0.00,Wunderground v.1.15,2013-03-31 11:45:00,
2013-03-31 07:51:00,38.0,32.1,30.01,SSE,163,2.0,2.0,79,0.00,,,0.00,Wunderground v.1.15,2013-03-31 11:51:00,
2013-03-31 08:03:00,39.7,33.0,30.01,SE,133,0.0,-999.0,77,-99.99,,,0.00,weatherlink.com 1.10,2013-03-31 12:03:00,
2013-03-31 08:10:00,40.2,33.2,30.01,SE,144,2.0,6.0,76,0.00,,,0.00,Wunderground v.1.15,2013-03-31 12:10:00,
2013-03-31 08:17:00,40.6,33.0,30.01,SE,144,7.0,-999.0,75,-99.99,,,0.00,weatherlink.com 1.10,2013-03-31 12:17:00,
2013-03-31 08:30:00,40.9,33.2,30.00,SE,144,5.0,6.0,74,0.00,,,0.00,Wunderground v.1.15,2013-03-31 12:30:00,
2013-03-31 08:35:00,41.1,33.4,30.00,SE,142,5.0,9.0,74,0.00,,,0.00,Wunderground v.1.15,2013-03-31 12:35:00,
2013-03-31 08:41:00,41.6,33.6,30.00,SSE,153,5.0,6.0,73,0.00,,,0.00,Wunderground v.1.15,2013-03-31 12:41:00,
2013-03-31 08:47:00,42.2,33.0,30.00,SE,144,6.0,-999.0,71,-99.99,,,0.00,weatherlink.com 1.10,2013-03-31 12:47:00,
2013-03-31 09:01:00,43.2,33.7,30.00,ESE,121,5.0,6.0,69,0.00,,,0.00,Wunderground v.1.15,2013-03-31 13:01:00,
2013-03-31 09:06:00,43.6,33.7,29.99,SE,146,6.0,7.0,68,0.00,,,0.00,Wunderground v.1.15,2013-03-31 13:06:00,
2013-03-31 09:15:00,44.4,34.1,29.99,SE,132,5.0,7.0,67,0.00,,,0.00,Wunderground v.1.15,2013-03-31 13:15:00,
2013-03-31 09:21:00,45.2,33.7,29.99,SE,146,5.0,7.0,64,0.00,,,0.00,Wunderground v.1.15,2013-03-31 13:21:00,
2013-03-31 09:26:00,46.3,33.2,29.98,SSE,148,6.0,7.0,60,0.00,,,0.00,Wunderground v.1.15,2013-03-31 13:26:00,
2013-03-31 09:32:00,47.1,33.0,29.97,SE,145,7.0,-999.0,58,-99.99,,,0.00,weatherlink.com 1.10,2013-03-31 13:32:00,
2013-03-31 09:40:00,47.3,32.8,29.97,SE,146,7.0,8.0,57,0.00,,,0.00,Wunderground v.1.15,2013-03-31 13:40:00,
2013-03-31 09:48:00,47.5,33.0,29.97,South,183,5.0,-999.0,58,-99.99,,,0.00,weatherlink.com 1.10,2013-03-31 13:48:00,
2013-03-31 10:02:00,48.2,33.0,29.97,South,183,4.0,-999.0,56,-99.99,,,0.00,weatherlink.com 1.10,2013-03-31 14:02:00,
2013-03-31 10:11:00,48.3,34.2,29.96,SSE,157,6.0,15.0,58,0.00,,,0.00,Wunderground v.1.15,2013-03-31 14:11:00,
2013-03-31 10:17:00,48.5,34.0,29.96,South,176,0.0,-999.0,57,-99.99,,,0.00,weatherlink.com 1.10,2013-03-31 14:17:00,
2013-03-31 10:36:00,48.8,35.1,29.95,South,180,5.0,5.0,59,0.00,,,0.00,Wunderground v.1.15,2013-03-31 14:36:00,
2013-03-31 10:41:00,48.9,35.2,29.95,South,190,4.0,5.0,59,0.00,,,0.00,Wunderground v.1.15,2013-03-31 14:41:00,
2013-03-31 10:47:00,48.9,35.0,29.95,SSE,164,7.0,-999.0,59,-99.99,,,0.00,weatherlink.com 1.10,2013-03-31 14:47:00,
2013-03-31 11:00:00,49.0,35.3,29.95,SSE,167,6.0,6.0,59,0.00,,,0.00,Wunderground v.1.15,2013-03-31 15:00:00,
2013-03-31 11:17:00,49.6,36.0,29.94,SSW,198,0.0,-999.0,61,-99.99,,,0.00,weatherlink.com 1.10,2013-03-31 15:17:00,
2013-03-31 11:25:00,50.0,36.2,29.94,SSW,200,2.0,6.0,59,0.00,,,0.00,Wunderground v.1.15,2013-03-31 15:25:00,
2013-03-31 11:31:00,50.1,36.7,29.94,South,171,3.0,4.0,60,0.00,,,0.00,Wunderground v.1.15,2013-03-31 15:31:00,
2013-03-31 11:47:00,50.3,37.0,29.93,SSE,155,4.0,-999.0,60,-99.99,,,0.00,weatherlink.com 1.10,2013-03-31 15:47:00,
2013-03-31 11:56:00,50.2,37.3,29.92,South,175,3.0,4.0,61,0.00,,,0.00,Wunderground v.1.15,2013-03-31 15:56:00,
2013-03-31 12:02:00,50.2,37.0,29.92,SSE,151,6.0,-999.0,61,-99.99,,,0.00,weatherlink.com 1.10,2013-03-31 16:02:00,
2013-03-31 12:11:00,50.1,37.2,29.91,ESE,121,3.0,3.0,61,0.00,,,0.00,Wunderground v.1.15,2013-03-31 16:11:00,
2013-03-31 12:17:00,50.2,37.0,29.90,SSW,195,0.0,-999.0,62,-99.99,,,0.00,weatherlink.com 1.10,2013-03-31 16:17:00,
2013-03-31 12:25:00,50.4,37.9,29.90,SSE,148,2.0,4.0,62,0.00,,,0.00,Wunderground v.1.15,2013-03-31 16:25:00,
2013-03-31 12:31:00,50.5,38.4,29.89,SE,142,3.0,4.0,63,0.00,,,0.00,Wunderground v.1.15,2013-03-31 16:31:00,
2013-03-31 12:46:00,51.1,38.9,29.87,ESE,102,4.0,6.0,63,0.00,,,0.00,Wunderground v.1.15,2013-03-31 16:46:00,
2013-03-31 12:56:00,51.4,39.2,29.87,SE,144,6.0,6.0,63,0.00,,,0.00,Wunderground v.1.15,2013-03-31 16:56:00,
2013-03-31 13:03:00,51.5,39.0,29.87,East,85,5.0,-999.0,63,-99.99,,,0.00,weatherlink.com 1.10,2013-03-31 17:03:00,
2013-03-31 13:15:00,50.6,40.0,29.86,ESE,113,6.0,8.0,67,0.00,,,0.00,Wunderground v.1.15,2013-03-31 17:15:00,
2013-03-31 13:20:00,50.7,39.7,29.86,SE,125,6.0,8.0,66,0.00,,,0.00,Wunderground v.1.15,2013-03-31 17:20:00,
2013-03-31 13:26:00,50.8,40.2,29.86,SE,135,5.0,5.0,67,0.00,,,0.00,Wunderground v.1.15,2013-03-31 17:26:00,
2013-03-31 13:32:00,51.0,40.0,29.86,SE,130,4.0,-999.0,67,-99.99,,,0.00,weatherlink.com 1.10,2013-03-31 17:32:00,
2013-03-31 13:40:00,51.3,41.1,29.85,ESE,123,4.0,6.0,68,0.00,,,0.00,Wunderground v.1.15,2013-03-31 17:40:00,
2013-03-31 13:48:00,51.2,41.0,29.85,ESE,107,6.0,-999.0,67,-99.99,,,0.00,weatherlink.com 1.10,2013-03-31 17:48:00,
2013-03-31 13:55:00,51.0,40.4,29.84,SE,138,7.0,8.0,67,0.00,,,0.00,Wunderground v.1.15,2013-03-31 17:55:00,
2013-03-31 14:01:00,50.7,40.9,29.83,ESE,106,6.0,6.0,69,0.00,,,0.00,Wunderground v.1.15,2013-03-31 18:01:00,
2013-03-31 14:16:00,50.4,41.3,29.81,ESE,104,6.0,6.0,71,0.00,,,0.00,Wunderground v.1.15,2013-03-31 18:16:00,
2013-03-31 14:21:00,50.2,41.9,29.81,ESE,114,6.0,8.0,73,0.00,,,0.00,Wunderground v.1.15,2013-03-31 18:21:00,
2013-03-31 14:30:00,49.6,42.3,29.81,ESE,113,6.0,6.0,76,0.00,,,0.00,Wunderground v.1.15,2013-03-31 18:30:00,
2013-03-31 14:36:00,49.5,42.9,29.80,SSE,155,6.0,6.0,78,0.00,,,0.00,Wunderground v.1.15,2013-03-31 18:36:00,
2013-03-31 14:48:00,49.0,43.0,29.80,SE,132,6.0,-999.0,81,-99.99,,,0.00,weatherlink.com 1.10,2013-03-31 18:48:00,
2013-03-31 15:03:00,48.6,44.0,29.79,SE,146,7.0,-999.0,83,-99.99,,,0.00,weatherlink.com 1.10,2013-03-31 19:03:00,
2013-03-31 15:15:00,48.2,43.3,29.79,SE,130,7.0,7.0,83,0.00,,,0.00,Wunderground v.1.15,2013-03-31 19:15:00,
2013-03-31 15:21:00,48.1,43.2,29.78,SE,134,8.0,9.0,83,0.00,,,0.00,Wunderground v.1.15,2013-03-31 19:21:00,
2013-03-31 15:33:00,47.8,44.0,29.78,SE,146,6.0,-999.0,86,-99.99,,,0.00,weatherlink.com 1.10,2013-03-31 19:33:00,
2013-03-31 15:40:00,47.8,44.1,29.77,SE,143,6.0,6.0,87,0.00,,,0.00,Wunderground v.1.15,2013-03-31 19:40:00,
2013-03-31 15:46:00,47.7,44.3,29.77,SSE,148,6.0,8.0,88,0.00,,,0.00,Wunderground v.1.15,2013-03-31 19:46:00,
2013-03-31 15:51:00,47.5,44.1,29.77,SE,141,6.0,9.0,88,0.00,,,0.00,Wunderground v.1.15,2013-03-31 19:51:00,
2013-03-31 16:01:00,46.9,43.8,29.76,SE,125,7.0,7.0,89,0.00,,,0.00,Wunderground v.1.15,2013-03-31 20:01:00,
2013-03-31 16:10:00,46.6,43.8,29.75,SE,134,7.0,8.0,90,0.00,,,0.00,Wunderground v.1.15,2013-03-31 20:10:00,
2013-03-31 16:16:00,46.4,43.9,29.75,ESE,118,8.0,8.0,91,0.00,,,0.00,Wunderground v.1.15,2013-03-31 20:16:00,
2013-03-31 16:26:00,46.2,44.0,29.75,SE,125,6.0,6.0,92,0.00,,,0.00,Wunderground v.1.15,2013-03-31 20:26:00,
2013-03-31 16:34:00,46.1,44.0,29.74,ESE,112,2.0,-999.0,93,-99.99,,,0.00,weatherlink.com 1.10,2013-03-31 20:34:00,
2013-03-31 16:45:00,46.1,44.2,29.74,East,101,5.0,5.0,93,0.00,,,0.00,Wunderground v.1.15,2013-03-31 20:45:00,
2013-03-31 16:51:00,46.2,44.3,29.74,ESE,108,5.0,5.0,93,0.00,,,0.00,Wunderground v.1.15,2013-03-31 20:51:00,
2013-03-31 17:03:00,46.3,45.0,29.73,SE,141,6.0,-999.0,94,-99.99,,,0.00,weatherlink.com 1.10,2013-03-31 21:03:00,
2013-03-31 17:18:00,46.3,45.0,29.73,SE,145,5.0,-999.0,94,-99.99,,,0.00,weatherlink.com 1.10,2013-03-31 21:18:00,
2013-03-31 17:30:00,46.1,44.5,29.72,SE,129,7.0,7.0,94,0.00,,,0.00,Wunderground v.1.15,2013-03-31 21:30:00,
2013-03-31 17:36:00,46.0,44.4,29.71,SE,134,8.0,9.0,94,0.00,,,0.00,Wunderground v.1.15,2013-03-31 21:36:00,
2013-03-31 17:48:00,45.9,44.0,29.70,SE,125,6.0,-999.0,94,-99.99,,,0.00,weatherlink.com 1.10,2013-03-31 21:48:00,
2013-03-31 18:03:00,46.0,45.0,29.70,SE,129,9.0,-999.0,95,-99.99,,,0.00,weatherlink.com 1.10,2013-03-31 22:03:00,
2013-03-31 18:11:00,46.0,44.6,29.69,SE,144,7.0,8.0,95,0.00,,,0.00,Wunderground v.1.15,2013-03-31 22:11:00,
2013-03-31 18:18:00,46.1,45.0,29.69,ESE,106,9.0,-999.0,95,-99.99,,,0.00,weatherlink.com 1.10,2013-03-31 22:18:00,
2013-03-31 18:26:00,46.1,44.7,29.70,SE,128,7.0,7.0,95,0.00,,,0.00,Wunderground v.1.15,2013-03-31 22:26:00,
2013-03-31 18:33:00,46.2,45.0,29.70,SSE,165,4.0,-999.0,95,-99.99,,,0.00,weatherlink.com 1.10,2013-03-31 22:33:00,
2013-03-31 18:46:00,46.2,44.8,29.70,WSW,246,2.0,2.0,95,0.00,,,0.00,Wunderground v.1.15,2013-03-31 22:46:00,
2013-03-31 18:51:00,46.2,44.8,29.70,SSW,207,2.0,2.0,95,0.00,,,0.00,Wunderground v.1.15,2013-03-31 22:51:00,
2013-03-31 19:03:00,46.1,45.0,29.69,SE,143,5.0,-999.0,95,-99.99,,,0.00,weatherlink.com 1.10,2013-03-31 23:03:00,
2013-03-31 19:18:00,46.1,45.0,29.69,SSE,154,0.0,-999.0,96,-99.99,,,0.00,weatherlink.com 1.10,2013-03-31 23:18:00,
2013-03-31 19:26:00,46.1,45.0,29.69,SSE,154,0.0,1.0,96,0.00,,,0.00,Wunderground v.1.15,2013-03-31 23:26:00,
2013-03-31 19:34:00,46.0,45.0,29.69,SSE,154,0.0,-999.0,96,-99.99,,,0.00,weatherlink.com 1.10,2013-03-31 23:34:00,
2013-03-31 19:48:00,46.0,45.0,29.69,SSE,153,0.0,-999.0,96,-99.99,,,0.00,weatherlink.com 1.10,2013-03-31 23:48:00,
2013-03-31 19:56:00,46.0,44.9,29.69,SSE,153,0.0,0.0,96,0.00,,,0.00,Wunderground v.1.15,2013-03-31 23:56:00,
2013-03-31 20:03:00,45.9,45.0,29.69,SSE,154,0.0,-999.0,96,-99.99,,,0.00,weatherlink.com 1.10,2013-04-01 00:03:00,
2013-03-31 20:18:00,45.9,45.0,29.69,SSE,153,0.0,-999.0,96,-99.99,,,0.00,weatherlink.com 1.10,2013-04-01 00:18:00,
2013-03-31 20:33:00,45.9,45.0,29.70,SSE,153,2.0,-999.0,96,-99.99,,,0.00,weatherlink.com 1.10,2013-04-01 00:33:00,
2013-03-31 20:48:00,45.8,45.0,29.70,SSE,154,0.0,-999.0,96,-99.99,,,0.00,weatherlink.com 1.10,2013-04-01 00:48:00,
2013-03-31 21:03:00,45.8,45.0,29.71,SW,226,0.0,-999.0,96,-99.99,,,0.00,weatherlink.com 1.10,2013-04-01 01:03:00,
2013-03-31 21:11:00,45.9,44.8,29.70,SW,232,0.0,2.0,96,0.00,,,0.00,Wunderground v.1.15,2013-04-01 01:11:00,
2013-03-31 21:18:00,46.1,45.0,29.70,WSW,241,4.0,-999.0,96,-99.99,,,0.00,weatherlink.com 1.10,2013-04-01 01:18:00,
2013-03-31 21:33:00,46.4,45.0,29.70,West,259,0.0,-999.0,96,-99.99,,,0.00,weatherlink.com 1.10,2013-04-01 01:33:00,
2013-03-31 21:41:00,46.5,45.4,29.70,West,259,2.0,3.0,96,0.00,,,0.00,Wunderground v.1.15,2013-04-01 01:41:00,
2013-03-31 21:48:00,46.5,46.0,29.70,WSW,257,0.0,-999.0,96,-99.99,,,0.00,weatherlink.com 1.10,2013-04-01 01:48:00,
2013-03-31 21:56:00,46.5,45.4,29.70,WSW,254,1.0,2.0,96,0.00,,,0.00,Wunderground v.1.15,2013-04-01 01:56:00,
2013-03-31 22:03:00,46.6,46.0,29.71,WSW,254,3.0,-999.0,96,-99.99,,,0.00,weatherlink.com 1.10,2013-04-01 02:03:00,
2013-03-31 22:18:00,46.6,46.0,29.72,West,277,0.0,-999.0,96,-99.99,,,0.00,weatherlink.com 1.10,2013-04-01 02:18:00,
2013-03-31 22:30:00,46.5,45.7,29.71,West,277,1.0,1.0,97,0.00,,,0.00,Wunderground v.1.15,2013-04-01 02:30:00,
2013-03-31 22:46:00,46.3,45.5,29.71,West,277,0.0,0.0,97,0.00,,,0.00,Wunderground v.1.15,2013-04-01 02:46:00,
2013-03-31 23:01:00,46.2,45.1,29.72,West,277,0.0,0.0,96,0.00,,,0.00,Wunderground v.1.15,2013-04-01 03:01:00,
2013-03-31 23:15:00,45.9,44.8,29.71,West,276,0.0,0.0,96,0.00,,,0.00,Wunderground v.1.15,2013-04-01 03:15:00,
2013-03-31 23:30:00,45.6,44.5,29.71,West,276,0.0,0.0,96,0.00,,,0.00,Wunderground v.1.15,2013-04-01 03:30:00,
2013-03-31 23:36:00,45.4,44.3,29.71,West,276,0.0,0.0,96,0.00,,,0.00,Wunderground v.1.15,2013-04-01 03:36:00,
2013-03-31 23:49:00,45.0,44.0,29.71,West,277,0.0,-999.0,96,-99.99,,,0.00,weatherlink.com 1.10,2013-04-01 03:49:00,